createdAt,value
2018-07-12T00:01:39.375Z,5.20
2018-07-12T00:04:05.637Z,3.67
2018-07-12T00:06:31.865Z,5.00
2018-07-12T00:08:58.058Z,3.97
2018-07-12T00:11:24.289Z,3.30
2018-07-12T00:13:50.557Z,9.40
2018-07-12T00:16:16.824Z,5.30
2018-07-12T00:18:43.121Z,2.97
2018-07-12T00:21:09.484Z,3.47
2018-07-12T00:23:35.681Z,3.00
2018-07-12T00:26:01.927Z,7.23
2018-07-12T00:28:28.171Z,3.73
2018-07-12T00:30:54.427Z,2.27
2018-07-12T00:33:20.730Z,4.30
2018-07-12T00:35:47.297Z,3.70
2018-07-12T00:38:13.597Z,5.60
2018-07-12T00:40:39.798Z,5.93
2018-07-12T00:43:06.092Z,2.47
2018-07-12T00:45:32.320Z,5.43
2018-07-12T00:47:58.573Z,3.03
2018-07-12T00:50:24.777Z,2.87
2018-07-12T00:52:51.065Z,3.70
2018-07-12T00:55:17.315Z,2.37
2018-07-12T00:57:43.549Z,3.50
2018-07-12T01:00:09.828Z,5.03
2018-07-12T01:02:36.079Z,2.70
2018-07-12T01:05:02.558Z,3.60
2018-07-12T01:07:28.820Z,2.80
2018-07-12T01:09:55.083Z,8.00
2018-07-12T01:12:21.931Z,6.03
2018-07-12T01:14:48.646Z,7.80
2018-07-12T01:17:14.917Z,4.20
2018-07-12T01:19:42.216Z,4.40
2018-07-12T01:22:08.447Z,6.57
2018-07-12T01:24:34.722Z,6.37
2018-07-12T01:27:00.962Z,3.50
2018-07-12T01:29:27.267Z,2.57
2018-07-12T01:31:53.632Z,3.60
2018-07-12T01:34:19.861Z,5.03
2018-07-12T01:36:46.132Z,3.50
2018-07-12T01:39:12.685Z,12.43
2018-07-12T01:41:38.977Z,3.87
2018-07-12T01:44:05.379Z,4.60
2018-07-12T01:46:31.640Z,4.30
2018-07-12T01:48:57.925Z,2.87
2018-07-12T01:51:25.051Z,4.17
2018-07-12T01:53:51.267Z,3.73
2018-07-12T01:56:17.569Z,3.87
2018-07-12T01:58:44.164Z,5.63
2018-07-12T02:01:10.510Z,8.80
2018-07-12T02:03:37.179Z,5.57
2018-07-12T02:06:03.996Z,9.33
2018-07-12T02:08:31.589Z,3.00
2018-07-12T02:10:57.886Z,6.47
2018-07-12T02:13:27.955Z,3.87
2018-07-12T02:15:54.154Z,3.40
2018-07-12T02:18:21.235Z,3.77
2018-07-12T02:20:47.481Z,6.00
2018-07-12T02:23:15.735Z,3.90
2018-07-12T02:25:42.001Z,3.83
2018-07-12T02:28:10.064Z,7.03
2018-07-12T02:30:36.335Z,5.43
2018-07-12T02:33:02.649Z,4.67
2018-07-12T02:35:28.891Z,5.00
2018-07-12T02:37:55.154Z,4.10
2018-07-12T02:40:22.503Z,6.80
2018-07-12T02:42:48.724Z,8.10
2018-07-12T02:45:18.400Z,4.77
2018-07-12T02:47:44.639Z,5.10
2018-07-12T02:50:12.216Z,4.80
2018-07-12T02:52:38.488Z,6.40
2018-07-12T02:55:06.249Z,4.30
2018-07-12T02:57:32.482Z,5.53
2018-07-12T03:00:02.326Z,6.50
2018-07-12T03:02:28.603Z,4.77
2018-07-12T03:04:55.440Z,6.73
2018-07-12T03:07:21.761Z,7.77
2018-07-12T03:09:48.011Z,5.77
2018-07-12T03:12:14.310Z,3.97
2018-07-12T03:14:40.518Z,4.90
2018-07-12T03:17:07.474Z,5.80
2018-07-12T03:19:33.731Z,4.57
2018-07-12T03:22:03.841Z,4.97
2018-07-12T03:24:30.103Z,4.80
2018-07-12T03:26:57.875Z,9.93
2018-07-12T03:29:24.166Z,4.70
2018-07-12T03:31:51.143Z,3.87
2018-07-12T03:34:17.382Z,5.33
2018-07-12T03:36:47.630Z,6.37
2018-07-12T03:39:13.870Z,4.10
2018-07-12T03:41:40.886Z,6.60
2018-07-12T03:44:07.203Z,13.10
2018-07-12T03:46:33.473Z,3.87
2018-07-12T03:48:59.760Z,3.87
2018-07-12T03:51:25.975Z,4.77
2018-07-12T03:53:54.789Z,5.62
2018-07-12T03:56:21.084Z,8.23
2018-07-12T03:58:47.364Z,7.80
2018-07-12T04:01:13.846Z,4.43
2018-07-12T04:03:42.003Z,6.30
2018-07-12T04:06:08.240Z,5.40
2018-07-12T04:08:38.395Z,5.47
2018-07-12T04:11:04.712Z,19.53
2018-07-12T04:13:31.855Z,5.77
2018-07-12T04:15:58.117Z,6.43
2018-07-12T04:18:26.294Z,5.57
2018-07-12T04:20:52.522Z,5.87
2018-07-12T04:23:18.739Z,5.93
2018-07-12T04:25:44.942Z,6.40
2018-07-12T04:28:11.199Z,4.80
2018-07-12T04:30:38.439Z,8.30
2018-07-12T04:33:04.672Z,5.50
2018-07-12T04:35:32.784Z,7.95
2018-07-12T04:37:59.024Z,6.60
2018-07-12T04:40:27.218Z,5.43
2018-07-12T04:42:53.409Z,9.17
2018-07-12T04:45:23.294Z,5.80
2018-07-12T04:47:49.582Z,5.00
2018-07-12T04:50:17.134Z,8.63
2018-07-12T04:52:43.350Z,7.20
2018-07-12T04:55:11.552Z,8.30
2018-07-12T04:57:37.815Z,6.67
2018-07-12T05:00:03.993Z,7.10
2018-07-12T05:02:30.199Z,10.10
2018-07-12T05:04:56.448Z,7.23
2018-07-12T05:07:23.607Z,8.70
2018-07-12T05:09:49.823Z,8.40
2018-07-12T05:12:17.957Z,6.00
2018-07-12T05:14:45.284Z,6.03
2018-07-12T05:17:12.953Z,6.60
2018-07-12T05:19:39.266Z,8.17
2018-07-12T05:22:08.822Z,5.37
2018-07-12T05:24:35.045Z,8.70
2018-07-12T05:27:01.843Z,7.30
2018-07-12T05:29:28.076Z,8.97
2018-07-12T05:31:57.851Z,7.50
2018-07-12T05:34:24.034Z,8.07
2018-07-12T05:36:54.371Z,10.63
2018-07-12T05:39:21.687Z,9.97
2018-07-12T05:41:49.075Z,7.50
2018-07-12T05:44:16.764Z,8.53
2018-07-12T05:46:44.039Z,7.83
2018-07-12T05:49:11.299Z,11.97
2018-07-12T05:51:38.624Z,8.80
2018-07-12T05:54:06.131Z,7.50
2018-07-12T05:56:33.441Z,11.07
2018-07-12T05:59:00.760Z,9.60
2018-07-12T06:01:39.705Z,12.10
2018-07-12T06:04:07.036Z,9.87
2018-07-12T06:06:34.274Z,9.90
2018-07-12T06:09:01.707Z,22.57
2018-07-12T06:11:29.034Z,15.33
2018-07-12T06:13:56.321Z,16.40
2018-07-12T06:16:23.661Z,9.63
2018-07-12T06:18:50.948Z,11.23
2018-07-12T06:21:18.211Z,13.50
2018-07-12T06:23:45.572Z,14.97
2018-07-12T06:26:13.170Z,24.53
2018-07-12T06:28:40.565Z,11.20
2018-07-12T06:31:07.841Z,13.97
2018-07-12T06:33:35.102Z,10.40
2018-07-12T06:36:02.508Z,16.50
2018-07-12T06:38:29.837Z,18.03
2018-07-12T06:40:57.183Z,11.40
2018-07-12T06:43:24.566Z,14.90
2018-07-12T06:45:51.813Z,18.80
2018-07-12T06:48:19.039Z,11.47
2018-07-12T06:50:46.453Z,13.77
2018-07-12T06:53:13.826Z,15.20
2018-07-12T06:55:41.166Z,10.47
2018-07-12T06:58:08.457Z,26.67
2018-07-12T07:00:35.795Z,15.63
2018-07-12T07:03:03.268Z,11.77
2018-07-12T07:05:30.652Z,16.30
2018-07-12T07:07:58.047Z,15.03
2018-07-12T07:10:25.356Z,17.53
2018-07-12T07:12:52.622Z,14.13
2018-07-12T07:15:20.001Z,12.93
2018-07-12T07:17:47.265Z,13.80
2018-07-12T07:20:14.746Z,14.33
2018-07-12T07:22:42.078Z,18.13
2018-07-12T07:25:09.423Z,17.47
2018-07-12T07:27:36.676Z,12.70
2018-07-12T07:30:04.259Z,13.47
2018-07-12T07:32:31.564Z,15.50
2018-07-12T07:34:58.887Z,14.43
2018-07-12T07:37:26.192Z,11.53
2018-07-12T07:39:53.536Z,12.03
2018-07-12T07:42:20.780Z,20.37
2018-07-12T07:44:48.006Z,18.33
2018-07-12T07:47:15.270Z,15.53
2018-07-12T07:49:42.747Z,22.63
2018-07-12T07:52:10.076Z,21.83
2018-07-12T07:54:37.401Z,21.03
2018-07-12T07:57:05.005Z,18.07
2018-07-12T07:59:32.244Z,25.80
2018-07-12T08:01:59.539Z,30.50
2018-07-12T08:04:26.889Z,21.20
2018-07-12T08:06:54.363Z,17.37
2018-07-12T08:09:21.699Z,21.00
2018-07-12T08:11:49.102Z,18.17
2018-07-12T08:14:16.442Z,16.57
2018-07-12T08:16:43.759Z,14.73
2018-07-12T08:19:11.080Z,20.27
2018-07-12T08:21:38.347Z,15.33
2018-07-12T08:24:05.749Z,20.13
2018-07-12T08:26:33.028Z,17.97
2018-07-12T08:29:00.352Z,18.03
2018-07-12T08:31:27.716Z,20.50
2018-07-12T08:33:55.056Z,25.47
2018-07-12T08:36:22.419Z,23.97
2018-07-12T08:38:49.664Z,22.43
2018-07-12T08:41:16.998Z,28.90
2018-07-12T08:43:44.294Z,20.70
2018-07-12T08:46:11.599Z,20.17
2018-07-12T08:48:38.929Z,17.07
2018-07-12T08:51:06.330Z,25.63
2018-07-12T08:53:33.628Z,14.70
2018-07-12T08:56:00.972Z,19.17
2018-07-12T08:58:28.268Z,13.13
2018-07-12T09:00:55.628Z,13.97
2018-07-12T09:03:22.929Z,11.77
2018-07-12T09:05:50.309Z,13.30
2018-07-12T09:08:17.656Z,11.60
2018-07-12T09:10:44.951Z,9.97
2018-07-12T09:13:12.182Z,11.40
2018-07-12T09:15:39.455Z,8.30
2018-07-12T09:18:06.744Z,9.73
2018-07-12T09:20:34.188Z,9.23
2018-07-12T09:23:01.457Z,9.83
2018-07-12T09:25:28.847Z,11.80
2018-07-12T09:27:56.116Z,7.70
2018-07-12T09:30:23.400Z,9.60
2018-07-12T09:32:50.783Z,10.20
2018-07-12T09:35:17.990Z,15.37
2018-07-12T09:37:45.326Z,8.27
2018-07-12T09:40:12.709Z,9.80
2018-07-12T09:42:40.007Z,8.87
2018-07-12T09:45:07.498Z,7.20
2018-07-12T09:47:34.918Z,7.70
2018-07-12T09:50:02.249Z,5.80
2018-07-12T09:52:31.950Z,9.23
2018-07-12T09:54:59.391Z,10.43
2018-07-12T09:57:38.430Z,4.17
2018-07-12T10:00:05.753Z,3.83
2018-07-12T10:02:38.783Z,3.87
2018-07-12T10:05:10.987Z,4.93
2018-07-12T10:07:46.940Z,4.73
2018-07-12T10:10:14.253Z,4.00
2018-07-12T10:12:47.335Z,3.87
2018-07-12T10:15:19.211Z,4.17
2018-07-12T10:17:54.991Z,3.10
2018-07-12T10:20:22.372Z,4.07
2018-07-12T10:22:49.728Z,5.43
2018-07-12T10:25:17.039Z,6.90
2018-07-12T10:27:44.339Z,5.10
2018-07-12T10:30:11.711Z,3.80
2018-07-12T10:32:39.055Z,7.33
2018-07-12T10:35:06.341Z,5.23
2018-07-12T10:37:33.649Z,6.20
2018-07-12T10:40:00.893Z,7.67
2018-07-12T10:42:28.266Z,7.53
2018-07-12T10:44:55.645Z,16.80
2018-07-12T10:47:22.913Z,4.93
2018-07-12T10:49:50.302Z,6.97
2018-07-12T10:52:17.612Z,6.67
2018-07-12T10:54:44.820Z,4.53
2018-07-12T10:57:12.114Z,7.33
2018-07-12T10:59:39.451Z,12.10
2018-07-12T11:02:06.779Z,12.60
2018-07-12T11:04:34.088Z,4.97
2018-07-12T11:07:01.441Z,7.07
2018-07-12T11:09:28.696Z,5.10
2018-07-12T11:11:56.028Z,5.80
2018-07-12T11:14:23.476Z,6.10
2018-07-12T11:16:50.835Z,6.20
2018-07-12T11:19:18.135Z,9.20
2018-07-12T11:21:45.356Z,6.17
2018-07-12T11:24:12.738Z,6.90
2018-07-12T11:26:40.019Z,5.43
2018-07-12T11:29:07.282Z,7.23
2018-07-12T11:31:34.548Z,5.77
2018-07-12T11:34:01.926Z,7.50
2018-07-12T11:36:29.288Z,5.23
2018-07-12T11:38:56.539Z,10.83
2018-07-12T11:41:23.936Z,6.53
2018-07-12T11:43:51.238Z,3.80
2018-07-12T11:46:18.527Z,3.97
2018-07-12T11:48:46.016Z,7.07
2018-07-12T11:51:13.378Z,7.70
2018-07-12T11:53:40.748Z,4.87
2018-07-12T11:56:08.134Z,9.57
2018-07-12T11:58:35.486Z,5.97
2018-07-12T12:01:02.899Z,6.43
2018-07-12T12:03:30.657Z,5.50
2018-07-12T12:05:57.954Z,6.70
2018-07-12T12:08:25.699Z,5.47
2018-07-12T12:10:53.013Z,5.30
2018-07-12T12:13:20.322Z,6.03
2018-07-12T12:15:47.644Z,5.73
2018-07-12T12:18:14.965Z,4.77
2018-07-12T12:20:42.295Z,4.70
2018-07-12T12:23:09.566Z,4.30
2018-07-12T12:25:36.939Z,7.37
2018-07-12T12:28:04.412Z,5.77
2018-07-12T12:30:31.675Z,7.93
2018-07-12T12:32:59.046Z,5.37
2018-07-12T12:35:26.413Z,5.23
2018-07-12T12:37:53.843Z,5.00
2018-07-12T12:40:21.237Z,3.27
2018-07-12T12:42:48.654Z,3.67
2018-07-12T12:45:16.082Z,4.97
2018-07-12T12:47:43.464Z,5.13
2018-07-12T12:50:10.771Z,4.47
2018-07-12T12:52:38.072Z,3.80
2018-07-12T12:55:05.873Z,4.03
2018-07-12T12:57:33.162Z,3.27
2018-07-12T13:00:00.582Z,6.00
2018-07-12T13:02:27.919Z,6.50
2018-07-12T13:04:55.277Z,4.07
2018-07-12T13:07:22.546Z,6.73
2018-07-12T13:09:49.973Z,3.93
2018-07-12T13:12:17.264Z,4.17
2018-07-12T13:14:45.471Z,6.97
2018-07-12T13:17:12.799Z,4.40
2018-07-12T13:19:40.156Z,5.27
2018-07-12T13:22:07.497Z,4.37
2018-07-12T13:24:34.724Z,9.63
2018-07-12T13:27:02.123Z,5.70
2018-07-12T13:29:29.508Z,4.43
2018-07-12T13:31:56.897Z,6.17
2018-07-12T13:34:24.113Z,3.63
2018-07-12T13:36:51.639Z,4.40
2018-07-12T13:39:18.948Z,4.27
2018-07-12T13:41:46.219Z,6.87
2018-07-12T13:44:20.591Z,4.83
2018-07-12T13:46:49.076Z,5.30
2018-07-12T13:49:19.323Z,4.37
2018-07-12T13:51:49.748Z,4.10
2018-07-12T13:54:17.596Z,3.93
2018-07-12T13:56:45.129Z,2.00
2018-07-12T13:59:12.547Z,2.30
2018-07-12T14:01:39.865Z,4.73
2018-07-12T14:04:08.320Z,5.63
2018-07-12T14:06:35.787Z,3.10
2018-07-12T14:09:04.075Z,2.13
2018-07-12T14:11:31.339Z,2.90
2018-07-12T14:13:58.620Z,3.10
2018-07-12T14:16:25.940Z,2.63
2018-07-12T14:18:53.256Z,6.77
2018-07-12T14:21:20.603Z,6.60
2018-07-12T14:23:47.816Z,4.40
2018-07-12T14:26:15.057Z,2.07
2018-07-12T14:28:43.009Z,2.83
2018-07-12T14:31:10.324Z,3.67
2018-07-12T14:33:37.607Z,2.90
2018-07-12T14:36:05.024Z,2.77
2018-07-12T14:38:32.302Z,3.70
2018-07-12T14:40:59.646Z,8.97
2018-07-12T14:43:26.908Z,4.77
2018-07-12T14:45:54.264Z,4.57
2018-07-12T14:48:21.516Z,6.93
2018-07-12T14:50:48.757Z,4.33
2018-07-12T14:53:16.012Z,3.80
2018-07-12T14:55:43.300Z,2.67
2018-07-12T14:58:10.624Z,13.30
2018-07-12T15:00:37.927Z,12.20
2018-07-12T15:03:05.223Z,10.33
2018-07-12T15:05:32.471Z,4.90
2018-07-12T15:07:59.837Z,2.13
2018-07-12T15:10:27.172Z,2.70
2018-07-12T15:12:54.529Z,3.83
2018-07-12T15:15:21.756Z,2.23
2018-07-12T15:17:49.087Z,2.40
2018-07-12T15:20:16.486Z,6.13
2018-07-12T15:22:43.797Z,1.93
2018-07-12T15:25:11.125Z,2.40
2018-07-12T15:27:38.488Z,2.30
2018-07-12T15:30:05.836Z,2.07
2018-07-12T15:32:33.136Z,6.60
2018-07-12T15:35:00.448Z,1.70
2018-07-12T15:37:27.725Z,3.83
2018-07-12T15:39:55.045Z,2.33
2018-07-12T15:42:22.402Z,2.07
2018-07-12T15:44:49.678Z,2.60
2018-07-12T15:47:17.028Z,2.90
2018-07-12T15:52:23.037Z,3.13
2018-07-12T15:54:50.404Z,1.87
2018-07-12T15:57:17.727Z,2.80
2018-07-12T15:59:45.048Z,1.60
2018-07-12T16:02:12.371Z,3.10
2018-07-12T16:04:39.690Z,1.87
2018-07-12T16:07:07.021Z,7.03
2018-07-12T16:09:34.292Z,2.50
2018-07-12T16:12:01.552Z,2.37
2018-07-12T16:14:28.835Z,2.90
2018-07-12T16:16:56.085Z,1.70
2018-07-12T16:19:23.310Z,5.07
2018-07-12T16:21:50.719Z,2.83
2018-07-12T16:24:17.999Z,1.70
2018-07-12T16:26:45.300Z,2.70
2018-07-12T16:29:12.595Z,4.03
2018-07-12T16:31:39.904Z,2.33
2018-07-12T16:34:07.318Z,1.67
2018-07-12T16:36:34.626Z,3.37
2018-07-12T16:39:01.912Z,2.00
2018-07-12T16:41:29.260Z,2.90
2018-07-12T16:43:56.513Z,3.60
2018-07-12T16:46:23.882Z,4.30
2018-07-12T16:48:51.177Z,4.00
2018-07-12T16:51:18.519Z,19.70
2018-07-12T16:53:45.869Z,41.17
2018-07-12T16:56:13.099Z,6.90
2018-07-12T16:58:40.478Z,10.13
2018-07-12T17:01:07.710Z,1.87
2018-07-12T17:03:35.028Z,2.13
2018-07-12T17:06:02.338Z,1.70
2018-07-12T17:08:29.834Z,3.53
2018-07-12T17:10:57.173Z,1.73
2018-07-12T17:13:24.504Z,1.90
2018-07-12T17:15:51.896Z,4.57
2018-07-12T17:18:19.156Z,2.00
2018-07-12T17:20:46.499Z,4.60
2018-07-12T17:23:13.868Z,5.93
2018-07-12T17:25:41.211Z,1.50
2018-07-12T17:28:09.246Z,6.77
2018-07-12T17:30:36.532Z,4.07
2018-07-12T17:33:03.934Z,7.30
2018-07-12T17:35:31.316Z,1.90
2018-07-12T17:37:58.619Z,2.43
2018-07-12T17:40:25.927Z,9.70
2018-07-12T17:42:53.303Z,2.83
2018-07-12T17:45:20.540Z,2.13
2018-07-12T17:47:47.825Z,2.53
2018-07-12T17:50:15.050Z,2.00
2018-07-12T17:52:42.394Z,4.07
2018-07-12T17:55:09.631Z,4.67
2018-07-12T17:57:36.935Z,3.20
2018-07-12T18:00:04.346Z,3.30
2018-07-12T18:02:31.642Z,2.40
2018-07-12T18:04:59.037Z,2.47
2018-07-12T18:07:26.302Z,2.50
2018-07-12T18:09:53.644Z,2.17
2018-07-12T18:12:21.083Z,12.70
2018-07-12T18:14:48.625Z,1.93
2018-07-12T18:17:15.984Z,2.10
2018-07-12T18:19:43.321Z,3.40
2018-07-12T18:22:10.689Z,3.40
2018-07-12T18:24:37.900Z,4.93
2018-07-12T18:27:05.214Z,3.73
2018-07-12T18:29:32.524Z,2.33
2018-07-12T18:31:59.812Z,3.80
2018-07-12T18:34:27.074Z,5.20
2018-07-12T18:36:54.329Z,15.37
2018-07-12T18:39:21.675Z,24.57
2018-07-12T18:41:48.995Z,4.93
2018-07-12T18:44:16.254Z,2.77
2018-07-12T18:46:43.549Z,3.23
2018-07-12T18:49:10.846Z,4.33
2018-07-12T18:51:38.199Z,2.20
2018-07-12T18:54:05.483Z,2.23
2018-07-12T18:56:32.765Z,2.90
2018-07-12T18:59:00.062Z,2.07
2018-07-12T19:01:27.442Z,2.37
2018-07-12T19:03:54.819Z,2.10
2018-07-12T19:06:22.219Z,3.80
2018-07-12T19:08:49.636Z,3.40
2018-07-12T19:11:16.852Z,3.53
2018-07-12T19:13:44.446Z,2.90
2018-07-12T19:16:11.795Z,6.47
2018-07-12T19:18:39.044Z,3.23
2018-07-12T19:21:06.387Z,2.83
2018-07-12T19:23:33.757Z,7.87
2018-07-12T19:26:01.118Z,2.80
2018-07-12T19:28:28.466Z,3.87
2018-07-12T19:30:55.881Z,4.27
2018-07-12T19:33:23.189Z,4.83
2018-07-12T19:35:50.576Z,5.20
2018-07-12T19:38:17.927Z,3.07
2018-07-12T19:40:45.189Z,8.30
2018-07-12T19:43:12.448Z,3.30
2018-07-12T19:45:39.727Z,3.70
2018-07-12T19:48:07.028Z,2.17
2018-07-12T19:50:34.283Z,4.20
2018-07-12T19:53:01.577Z,2.03
2018-07-12T19:55:28.937Z,8.53
2018-07-12T19:57:56.263Z,3.57
2018-07-12T20:00:23.622Z,3.87
2018-07-12T20:05:28.184Z,21.00
2018-07-12T20:07:55.470Z,8.87
2018-07-12T20:10:22.847Z,6.07
2018-07-12T20:12:50.205Z,9.23
2018-07-12T20:15:17.509Z,3.40
2018-07-12T20:17:44.764Z,6.33
2018-07-12T20:20:11.987Z,8.50
2018-07-12T20:22:39.390Z,4.67
2018-07-12T20:25:06.715Z,2.63
2018-07-12T20:27:34.009Z,3.23
2018-07-12T20:30:01.386Z,9.70
2018-07-12T20:32:28.659Z,4.20
2018-07-12T20:34:56.015Z,3.07
2018-07-12T20:37:23.338Z,2.27
2018-07-12T20:39:50.722Z,2.83
2018-07-12T20:42:18.014Z,4.87
2018-07-12T20:44:45.604Z,8.37
2018-07-12T20:47:12.972Z,6.20
2018-07-12T20:49:40.323Z,7.50
2018-07-12T20:52:07.769Z,3.67
2018-07-12T20:54:35.121Z,4.87
2018-07-12T20:57:02.553Z,5.30
2018-07-12T20:59:29.958Z,5.87
2018-07-12T21:01:57.294Z,9.50
2018-07-12T21:04:24.688Z,3.23
2018-07-12T21:06:52.258Z,4.13
2018-07-12T21:09:19.660Z,5.10
2018-07-12T21:11:46.960Z,4.60
2018-07-12T21:14:14.267Z,6.23
2018-07-12T21:16:41.634Z,4.93
2018-07-12T21:19:09.008Z,10.53
2018-07-12T21:21:36.316Z,5.03
2018-07-12T21:24:03.630Z,3.60
2018-07-12T21:26:30.920Z,4.27
2018-07-12T21:28:58.295Z,4.20
2018-07-12T21:31:25.624Z,3.83
2018-07-12T21:33:52.964Z,8.37
2018-07-12T21:36:20.325Z,3.30
2018-07-12T21:38:47.617Z,5.50
2018-07-12T21:41:15.001Z,5.10
2018-07-12T21:43:42.300Z,5.40
2018-07-12T21:46:09.603Z,4.87
2018-07-12T21:48:36.963Z,4.23
2018-07-12T21:51:04.243Z,5.90
2018-07-12T21:53:31.766Z,6.13
2018-07-12T21:55:59.028Z,11.60
2018-07-12T21:58:26.464Z,4.60
2018-07-12T22:00:53.919Z,3.70
2018-07-12T22:03:21.215Z,5.90
2018-07-12T22:05:48.556Z,4.43
2018-07-12T22:08:22.434Z,9.83
2018-07-12T22:10:51.056Z,3.90
2018-07-12T22:13:19.844Z,9.50
2018-07-12T22:15:47.204Z,9.10
2018-07-12T22:18:14.518Z,7.27
2018-07-12T22:20:43.350Z,5.73
2018-07-12T22:23:10.732Z,4.20
2018-07-12T22:25:38.188Z,4.93
2018-07-12T22:28:05.633Z,8.87
2018-07-12T22:30:33.056Z,6.47
2018-07-12T22:33:01.923Z,4.40
2018-07-12T22:35:29.220Z,7.60
2018-07-12T22:37:57.352Z,4.13
2018-07-12T22:40:24.739Z,8.37
2018-07-12T22:42:52.067Z,3.73
2018-07-12T22:45:19.386Z,5.87
2018-07-12T22:47:46.699Z,5.10
2018-07-12T22:50:13.983Z,5.70
2018-07-12T22:52:41.321Z,3.77
2018-07-12T22:55:08.674Z,5.23
2018-07-12T22:57:36.159Z,7.12
2018-07-12T23:00:03.818Z,6.15
2018-07-12T23:02:31.166Z,6.40
2018-07-12T23:04:58.516Z,5.00
2018-07-12T23:07:25.836Z,6.90
2018-07-12T23:09:53.123Z,5.58
2018-07-12T23:12:20.528Z,6.03
2018-07-12T23:14:49.086Z,6.40
2018-07-12T23:17:16.471Z,4.62
2018-07-12T23:19:44.215Z,8.87
2018-07-12T23:22:11.563Z,5.93
2018-07-12T23:24:38.933Z,6.60
2018-07-12T23:27:06.212Z,7.92
2018-07-12T23:29:33.752Z,6.55
2018-07-12T23:32:01.151Z,8.10
2018-07-12T23:34:28.485Z,7.10
2018-07-12T23:36:55.768Z,5.47
2018-07-12T23:39:23.594Z,6.28
2018-07-12T23:41:51.010Z,6.42
2018-07-12T23:44:20.523Z,5.53
2018-07-12T23:46:47.913Z,7.60
2018-07-12T23:49:15.338Z,5.60
2018-07-12T23:51:42.659Z,5.78
2018-07-12T23:54:09.980Z,5.45
2018-07-12T23:56:37.275Z,6.42
2018-07-12T23:59:04.713Z,8.90
